createdAt,value
2019-01-12T00:00:33.715Z,7.43
2019-01-12T00:03:02.820Z,7.34
2019-01-12T00:05:31.971Z,7.37
2019-01-12T00:08:01.046Z,7.27
2019-01-12T00:10:30.255Z,7.34
2019-01-12T00:12:59.453Z,7.27
2019-01-12T00:15:28.626Z,7.38
2019-01-12T00:17:57.784Z,7.25
2019-01-12T00:20:26.918Z,7.32
2019-01-12T00:22:55.993Z,7.29
2019-01-12T00:25:25.254Z,7.31
2019-01-12T00:27:54.385Z,7.29
2019-01-12T00:30:23.528Z,7.33
2019-01-12T00:32:52.754Z,7.30
2019-01-12T00:35:21.919Z,7.31
2019-01-12T00:37:51.092Z,7.31
2019-01-12T00:40:20.238Z,7.22
2019-01-12T00:42:49.327Z,7.27
2019-01-12T00:45:18.475Z,7.17
2019-01-12T00:47:47.612Z,7.20
2019-01-12T00:50:18.681Z,7.19
2019-01-12T00:52:47.809Z,7.28
2019-01-12T00:55:16.945Z,7.17
2019-01-12T00:57:46.040Z,7.09
2019-01-12T01:00:18.119Z,7.12
2019-01-12T01:02:47.267Z,7.10
2019-01-12T01:05:16.509Z,7.05
2019-01-12T01:07:45.668Z,7.08
2019-01-12T01:10:17.908Z,7.03
2019-01-12T01:12:47.044Z,7.11
2019-01-12T01:15:16.240Z,7.16
2019-01-12T01:17:45.448Z,7.19
2019-01-12T01:20:15.235Z,7.26
2019-01-12T01:22:44.408Z,7.08
2019-01-12T01:25:13.491Z,7.15
2019-01-12T01:27:42.623Z,7.07
2019-01-12T01:30:17.095Z,7.19
2019-01-12T01:32:46.271Z,7.26
2019-01-12T01:35:15.389Z,7.15
2019-01-12T01:37:44.575Z,7.07
2019-01-12T01:40:15.723Z,7.10
2019-01-12T01:42:44.852Z,7.06
2019-01-12T01:45:14.743Z,7.10
2019-01-12T01:47:43.886Z,7.07
2019-01-12T01:50:14.348Z,7.18
2019-01-12T01:52:43.524Z,7.16
2019-01-12T01:55:12.647Z,7.17
2019-01-12T01:57:41.838Z,7.23
2019-01-12T02:00:16.204Z,7.22
2019-01-12T02:02:45.374Z,7.08
2019-01-12T02:05:14.501Z,6.93
2019-01-12T02:07:43.683Z,7.03
2019-01-12T02:10:18.964Z,7.14
2019-01-12T02:12:48.093Z,6.97
2019-01-12T02:15:17.392Z,7.12
2019-01-12T02:17:46.491Z,6.98
2019-01-12T02:20:15.639Z,7.02
2019-01-12T02:22:44.818Z,6.98
2019-01-12T02:25:14.212Z,7.05
2019-01-12T02:27:43.364Z,7.09
2019-01-12T02:30:16.063Z,7.06
2019-01-12T02:32:45.151Z,7.14
2019-01-12T02:35:14.285Z,7.12
2019-01-12T02:37:43.429Z,7.18
2019-01-12T02:40:12.595Z,7.15
2019-01-12T02:42:41.790Z,7.11
2019-01-12T02:45:11.082Z,7.12
2019-01-12T02:47:40.221Z,7.08
2019-01-12T02:50:09.443Z,7.13
2019-01-12T02:52:38.590Z,7.17
2019-01-12T02:55:08.936Z,7.12
2019-01-12T02:57:38.375Z,7.20
2019-01-12T03:00:10.204Z,7.16
2019-01-12T03:02:54.883Z,7.12
2019-01-12T03:05:15.142Z,7.16
2019-01-12T03:07:44.350Z,7.09
2019-01-12T03:10:15.024Z,7.07
2019-01-12T03:12:44.156Z,7.09
2019-01-12T03:15:15.211Z,7.10
2019-01-12T03:17:44.341Z,7.18
2019-01-12T03:20:15.143Z,7.18
2019-01-12T03:22:44.340Z,7.08
2019-01-12T03:25:18.694Z,7.07
2019-01-12T03:27:44.307Z,7.09
2019-01-12T03:30:18.408Z,7.12
2019-01-12T03:32:47.490Z,7.11
2019-01-12T03:35:16.611Z,7.01
2019-01-12T03:37:45.730Z,7.09
2019-01-12T03:40:17.892Z,7.06
2019-01-12T03:42:47.034Z,7.06
2019-01-12T03:45:16.883Z,7.04
2019-01-12T03:47:46.045Z,6.96
2019-01-12T03:50:15.167Z,6.98
2019-01-12T03:52:44.268Z,6.90
2019-01-12T03:55:13.447Z,6.92
2019-01-12T03:57:42.531Z,6.88
2019-01-12T04:00:23.624Z,6.88
2019-01-12T04:02:52.747Z,6.97
2019-01-12T04:05:21.859Z,6.94
2019-01-12T04:07:51.001Z,6.87
2019-01-12T04:10:20.097Z,6.89
2019-01-12T04:12:49.184Z,6.86
2019-01-12T04:15:18.391Z,6.93
2019-01-12T04:17:47.516Z,6.93
2019-01-12T04:20:17.749Z,6.84
2019-01-12T04:22:46.836Z,6.85
2019-01-12T04:25:15.980Z,6.87
2019-01-12T04:27:45.153Z,6.92
2019-01-12T04:30:16.529Z,6.87
2019-01-12T04:32:45.636Z,6.84
2019-01-12T04:35:14.754Z,6.82
2019-01-12T04:37:43.851Z,6.92
2019-01-12T04:40:18.246Z,7.04
2019-01-12T04:42:47.397Z,6.94
2019-01-12T04:45:16.474Z,6.92
2019-01-12T04:47:45.642Z,6.93
2019-01-12T04:50:16.855Z,6.90
2019-01-12T04:52:46.053Z,6.82
2019-01-12T04:55:15.300Z,6.88
2019-01-12T04:57:44.346Z,6.77
2019-01-12T05:00:17.982Z,6.78
2019-01-12T05:02:47.178Z,6.81
2019-01-12T05:05:16.444Z,6.70
2019-01-12T05:07:45.514Z,6.76
2019-01-12T05:10:14.810Z,6.71
2019-01-12T05:12:43.994Z,6.67
2019-01-12T05:15:13.711Z,6.76
2019-01-12T05:17:42.848Z,6.81
2019-01-12T05:20:18.445Z,6.69
2019-01-12T05:22:47.725Z,6.75
2019-01-12T05:25:17.037Z,6.79
2019-01-12T05:27:46.226Z,6.59
2019-01-12T05:30:20.305Z,6.74
2019-01-12T05:32:49.457Z,6.77
2019-01-12T05:35:18.617Z,6.75
2019-01-12T05:37:47.787Z,6.77
2019-01-12T05:40:16.888Z,6.78
2019-01-12T05:42:46.126Z,6.70
2019-01-12T05:45:15.226Z,6.65
2019-01-12T05:47:44.403Z,6.66
2019-01-12T05:50:13.960Z,6.71
2019-01-12T05:52:43.103Z,6.79
2019-01-12T05:55:12.202Z,6.62
2019-01-12T05:57:41.370Z,6.71
2019-01-12T06:00:14.745Z,6.72
2019-01-12T06:02:43.855Z,6.68
2019-01-12T06:05:12.972Z,6.70
2019-01-12T06:07:42.002Z,6.62
2019-01-12T06:10:11.124Z,6.67
2019-01-12T06:12:40.208Z,6.62
2019-01-12T06:15:09.499Z,6.63
2019-01-12T06:17:39.697Z,6.68
2019-01-12T06:20:09.795Z,6.61
2019-01-12T06:22:39.126Z,6.66
2019-01-12T06:25:08.357Z,6.62
2019-01-12T06:27:38.446Z,6.61
2019-01-12T06:30:10.588Z,6.59
2019-01-12T06:32:39.835Z,6.60
2019-01-12T06:35:09.028Z,6.72
2019-01-12T06:37:38.260Z,6.78
2019-01-12T06:40:10.138Z,6.71
2019-01-12T06:42:39.281Z,6.70
2019-01-12T06:45:09.919Z,6.71
2019-01-12T06:47:39.031Z,6.66
2019-01-12T06:50:09.403Z,6.74
2019-01-12T06:52:38.665Z,6.69
2019-01-12T06:55:08.937Z,6.69
2019-01-12T06:57:38.095Z,6.60
2019-01-12T07:00:10.561Z,6.61
2019-01-12T07:02:39.645Z,6.66
2019-01-12T07:05:08.791Z,6.65
2019-01-12T07:07:37.897Z,6.68
2019-01-12T07:10:07.882Z,6.61
2019-01-12T07:12:37.298Z,6.67
2019-01-12T07:15:07.455Z,6.60
2019-01-12T07:17:36.624Z,6.55
2019-01-12T07:20:08.202Z,6.64
2019-01-12T07:22:37.351Z,6.65
2019-01-12T07:25:06.448Z,6.59
2019-01-12T07:27:35.552Z,6.53
2019-01-12T07:30:06.301Z,6.60
2019-01-12T07:32:35.443Z,6.56
2019-01-12T07:35:04.507Z,6.58
2019-01-12T07:37:34.013Z,6.52
2019-01-12T07:40:03.234Z,6.46
2019-01-12T07:42:32.376Z,6.49
2019-01-12T07:45:01.399Z,6.52
2019-01-12T07:47:30.599Z,6.62
2019-01-12T07:49:59.637Z,6.52
2019-01-12T07:52:28.726Z,6.59
2019-01-12T07:54:57.798Z,6.63
2019-01-12T07:57:26.923Z,6.63
2019-01-12T07:59:56.044Z,6.64
2019-01-12T08:02:25.138Z,6.62
2019-01-12T08:04:54.189Z,6.70
2019-01-12T08:07:23.320Z,6.66
2019-01-12T08:09:52.436Z,6.62
2019-01-12T08:12:21.488Z,6.63
2019-01-12T08:14:50.569Z,6.68
2019-01-12T08:17:19.716Z,6.64
2019-01-12T08:19:48.787Z,6.64
2019-01-12T08:22:17.839Z,6.70
2019-01-12T08:24:46.911Z,6.63
2019-01-12T08:27:15.953Z,6.64
2019-01-12T08:29:45.006Z,6.61
2019-01-12T08:32:16.419Z,6.70
2019-01-12T08:34:45.513Z,6.71
2019-01-12T08:37:14.654Z,6.80
2019-01-12T08:39:43.759Z,6.85
2019-01-12T08:42:16.763Z,6.93
2019-01-12T08:44:45.944Z,6.76
2019-01-12T08:47:15.067Z,6.75
2019-01-12T08:49:45.627Z,6.68
2019-01-12T08:52:14.738Z,6.78
2019-01-12T08:54:43.799Z,6.75
2019-01-12T08:57:12.945Z,6.88
2019-01-12T08:59:42.042Z,6.86
2019-01-12T09:02:11.089Z,6.88
2019-01-12T09:04:43.492Z,6.94
2019-01-12T09:07:11.198Z,6.95
2019-01-12T09:09:40.389Z,7.07
2019-01-12T09:12:09.460Z,6.99
2019-01-12T09:14:38.752Z,7.07
2019-01-12T09:17:07.970Z,7.06
2019-01-12T09:19:37.072Z,7.15
2019-01-12T09:22:07.936Z,7.14
2019-01-12T09:24:37.140Z,7.07
2019-01-12T09:27:06.292Z,7.19
2019-01-12T09:29:35.426Z,7.13
2019-01-12T09:32:04.559Z,7.19
2019-01-12T09:35:30.699Z,7.14
2019-01-12T09:38:00.601Z,7.19
2019-01-12T09:40:33.014Z,7.10
2019-01-12T09:43:02.227Z,7.15
2019-01-12T09:45:34.615Z,7.13
2019-01-12T09:48:03.978Z,7.04
2019-01-12T09:50:34.742Z,7.11
2019-01-12T09:53:12.027Z,7.11
2019-01-12T09:55:40.884Z,7.06
2019-01-12T09:58:10.186Z,7.02
2019-01-12T10:00:39.284Z,7.14
2019-01-12T10:03:08.526Z,7.07
2019-01-12T10:05:37.599Z,7.08
2019-01-12T10:08:06.689Z,7.18
2019-01-12T10:10:35.852Z,7.08
2019-01-12T10:13:04.945Z,7.01
2019-01-12T10:15:37.331Z,7.03
2019-01-12T10:18:08.443Z,7.09
2019-01-12T10:20:37.285Z,7.25
2019-01-12T10:23:06.388Z,7.10
2019-01-12T10:25:35.473Z,7.26
2019-01-12T10:28:04.579Z,7.25
2019-01-12T10:30:33.690Z,7.18
2019-01-12T10:33:02.769Z,7.21
2019-01-12T10:35:31.934Z,7.27
2019-01-12T10:38:01.059Z,7.27
2019-01-12T10:40:30.210Z,7.13
2019-01-12T10:42:59.299Z,7.21
2019-01-12T10:45:28.470Z,7.23
2019-01-12T10:47:57.554Z,7.17
2019-01-12T10:50:31.959Z,7.03
2019-01-12T10:53:01.140Z,7.15
2019-01-12T10:55:30.218Z,7.03
2019-01-12T10:57:59.857Z,7.15
2019-01-12T11:00:32.331Z,6.87
2019-01-12T11:03:01.548Z,6.72
2019-01-12T11:05:30.782Z,6.78
2019-01-12T11:16:31.199Z,6.83
2019-01-12T11:19:33.735Z,6.85
2019-01-12T11:22:32.969Z,6.78
2019-01-12T11:25:32.418Z,6.86
2019-01-12T11:28:31.766Z,6.89
2019-01-12T11:31:34.491Z,6.79
2019-01-12T11:57:53.416Z,6.89
2019-01-12T12:00:27.575Z,6.76
2019-01-12T12:02:56.763Z,6.80
2019-01-12T12:05:25.886Z,6.75
2019-01-12T12:07:55.015Z,6.69
2019-01-12T12:10:24.102Z,6.83
2019-01-12T12:12:53.242Z,6.76
2019-01-12T12:15:23.187Z,6.73
2019-01-12T12:17:52.324Z,6.75
2019-01-12T12:20:23.732Z,6.71
2019-01-12T12:22:52.884Z,6.80
2019-01-12T12:25:22.024Z,6.93
2019-01-12T12:27:51.124Z,6.81
2019-01-12T12:30:22.585Z,6.76
2019-01-12T12:32:58.542Z,6.77
2019-01-12T12:35:27.759Z,6.98
2019-01-12T12:37:56.913Z,6.86
2019-01-12T12:40:26.250Z,6.92
2019-01-12T12:43:03.818Z,6.88
2019-01-12T12:46:07.599Z,6.93
2019-01-12T12:49:17.243Z,6.99
2019-01-12T12:52:13.162Z,6.89
2019-01-12T12:54:42.396Z,7.00
2019-01-12T12:57:11.607Z,7.04
2019-01-12T12:59:40.871Z,6.98
2019-01-12T13:02:10.030Z,6.89
2019-01-12T13:04:40.894Z,6.95
2019-01-12T13:07:10.162Z,7.04
2019-01-12T13:09:39.300Z,6.90
2019-01-12T13:12:08.715Z,6.92
2019-01-12T13:14:38.030Z,6.98
2019-01-12T13:17:07.223Z,7.04
2019-01-12T13:19:36.413Z,7.07
2019-01-12T13:22:05.715Z,7.03
2019-01-12T13:24:34.893Z,7.10
2019-01-12T13:27:42.163Z,7.03
2019-01-12T13:30:17.696Z,7.18
2019-01-12T13:32:49.327Z,7.12
2019-01-12T13:35:18.455Z,7.14
2019-01-12T13:37:47.624Z,7.16
2019-01-12T13:40:48.733Z,7.16
2019-01-12T13:44:06.665Z,7.24
2019-01-12T13:46:48.194Z,7.26
2019-01-12T13:49:17.364Z,7.32
2019-01-12T13:51:46.628Z,7.51
2019-01-12T13:54:15.839Z,7.54
2019-01-12T13:56:44.983Z,7.46
2019-01-12T13:59:15.314Z,7.47
2019-01-12T14:01:44.387Z,7.55
2019-01-12T14:04:13.551Z,7.58
2019-01-12T14:06:42.700Z,7.59
2019-01-12T14:09:11.806Z,7.58
2019-01-12T14:11:41.051Z,7.62
2019-01-12T14:14:10.179Z,7.61
2019-01-12T14:16:39.308Z,7.64
2019-01-12T14:19:08.395Z,7.60
2019-01-12T14:21:37.531Z,7.55
2019-01-12T14:24:06.627Z,7.56
2019-01-12T14:26:35.734Z,7.62
2019-01-12T14:29:04.851Z,7.64
2019-01-12T14:31:33.940Z,7.63
2019-01-12T14:34:03.061Z,7.67
2019-01-12T14:36:32.255Z,7.67
2019-01-12T14:39:01.347Z,7.66
2019-01-12T14:41:30.597Z,7.79
2019-01-12T14:43:59.738Z,7.84
2019-01-12T14:46:28.937Z,7.81
2019-01-12T14:48:58.079Z,7.83
2019-01-12T14:51:27.195Z,7.72
2019-01-12T14:53:56.294Z,7.75
2019-01-12T14:56:25.665Z,7.74
2019-01-12T14:58:54.860Z,7.81
2019-01-12T15:01:24.101Z,7.73
2019-01-12T15:03:53.197Z,7.69
2019-01-12T15:06:22.321Z,7.71
2019-01-12T15:08:51.410Z,7.78
2019-01-12T15:11:20.689Z,7.75
2019-01-12T15:13:49.875Z,7.84
2019-01-12T15:16:19.076Z,7.88
2019-01-12T15:18:48.216Z,7.79
2019-01-12T15:21:17.365Z,7.80
2019-01-12T15:23:46.479Z,7.78
2019-01-12T15:26:15.629Z,7.86
2019-01-12T15:28:44.701Z,7.81
2019-01-12T15:31:13.824Z,7.94
2019-01-12T15:33:42.973Z,7.89
2019-01-12T15:36:12.124Z,7.98
2019-01-12T15:38:41.249Z,7.91
2019-01-12T15:41:10.443Z,7.80
2019-01-12T15:43:39.605Z,7.77
2019-01-12T15:46:08.757Z,7.92
2019-01-12T15:48:37.837Z,7.81
2019-01-12T15:51:06.931Z,7.81
2019-01-12T15:53:36.092Z,7.90
2019-01-12T15:56:05.249Z,7.89
2019-01-12T15:58:34.397Z,7.89
2019-01-12T16:01:03.520Z,7.86
2019-01-12T16:03:32.607Z,7.81
2019-01-12T16:06:01.705Z,7.84
2019-01-12T16:08:30.845Z,7.81
2019-01-12T16:10:59.992Z,7.83
2019-01-12T16:13:29.123Z,7.85
2019-01-12T16:15:58.267Z,7.96
2019-01-12T16:18:27.415Z,8.03
2019-01-12T16:20:56.514Z,7.98
2019-01-12T16:23:25.695Z,8.06
2019-01-12T16:25:54.815Z,8.07
2019-01-12T16:28:23.941Z,7.94
2019-01-12T16:30:53.154Z,8.05
2019-01-12T16:33:22.382Z,8.04
2019-01-12T16:35:51.714Z,8.09
2019-01-12T16:38:20.897Z,8.19
2019-01-12T16:40:50.048Z,8.16
2019-01-12T16:43:19.174Z,8.18
2019-01-12T16:45:48.277Z,8.21
2019-01-12T16:48:17.376Z,8.15
2019-01-12T16:50:46.503Z,8.21
2019-01-12T16:53:15.587Z,8.18
2019-01-12T16:55:44.752Z,8.13
2019-01-12T16:58:13.954Z,8.08
2019-01-12T17:00:43.168Z,8.07
2019-01-12T17:03:12.329Z,8.13
2019-01-12T17:05:41.574Z,8.04
2019-01-12T17:08:10.724Z,8.02
2019-01-12T17:10:39.892Z,8.09
2019-01-12T17:13:08.971Z,8.06
2019-01-12T17:15:38.129Z,7.97
2019-01-12T17:18:07.218Z,7.94
2019-01-12T17:20:45.632Z,7.66
2019-01-12T17:23:14.800Z,7.69
2019-01-12T17:25:43.979Z,7.85
2019-01-12T17:28:23.029Z,7.87
2019-01-12T17:35:30.708Z,7.71
2019-01-12T17:38:27.279Z,7.76
2019-01-12T17:40:56.406Z,7.91
2019-01-12T17:43:25.554Z,7.95
2019-01-12T17:46:50.221Z,7.98
2019-01-12T17:49:19.399Z,7.90
2019-01-12T17:51:48.547Z,7.96
2019-01-12T17:54:18.960Z,8.02
2019-01-12T17:56:48.164Z,7.94
2019-01-12T17:59:17.444Z,7.97
2019-01-12T18:01:46.918Z,7.94
2019-01-12T18:04:16.095Z,7.99
2019-01-12T18:06:45.332Z,8.01
2019-01-12T18:09:14.598Z,8.03
2019-01-12T18:11:43.840Z,7.90
2019-01-12T18:14:12.979Z,7.95
2019-01-12T18:16:43.402Z,7.94
2019-01-12T18:19:13.054Z,7.87
2019-01-12T18:21:42.238Z,7.77
2019-01-12T18:24:11.432Z,7.82
2019-01-12T18:26:40.520Z,7.77
2019-01-12T18:29:09.683Z,7.89
2019-01-12T18:31:38.771Z,7.85
2019-01-12T18:34:07.907Z,7.79
2019-01-12T18:36:36.947Z,7.83
2019-01-12T18:39:08.180Z,7.90
2019-01-12T18:41:37.285Z,7.77
2019-01-12T18:44:06.528Z,7.66
2019-01-12T18:46:35.607Z,7.51
2019-01-12T18:49:05.009Z,7.43
2019-01-12T18:51:34.089Z,7.46
2019-01-12T18:54:03.306Z,7.43
2019-01-12T18:56:32.430Z,7.46
2019-01-12T18:59:01.604Z,7.47
2019-01-12T19:01:30.748Z,7.59
2019-01-12T19:03:59.851Z,7.62
2019-01-12T19:06:29.335Z,7.59
2019-01-12T19:08:58.467Z,7.66
2019-01-12T19:11:27.670Z,7.72
2019-01-12T19:13:56.808Z,7.71
2019-01-12T19:16:25.968Z,7.80
2019-01-12T19:18:55.058Z,7.82
2019-01-12T19:21:24.267Z,7.81
2019-01-12T19:23:53.358Z,7.86
2019-01-12T19:26:22.543Z,7.80
2019-01-12T19:28:51.699Z,7.75
2019-01-12T19:31:20.831Z,7.75
2019-01-12T19:33:50.033Z,7.79
2019-01-12T19:36:19.185Z,7.77
2019-01-12T19:38:48.287Z,7.74
2019-01-12T19:41:17.576Z,7.81
2019-01-12T19:43:46.669Z,7.83
2019-01-12T19:46:15.766Z,7.84
2019-01-12T19:48:44.885Z,7.65
2019-01-12T19:51:14.424Z,7.77
2019-01-12T19:53:43.561Z,7.66
2019-01-12T19:56:12.702Z,7.61
2019-01-12T19:58:41.856Z,7.62
2019-01-12T20:01:11.094Z,7.64
2019-01-12T20:03:40.253Z,7.64
2019-01-12T20:06:16.886Z,7.61
2019-01-12T20:08:40.280Z,7.62
2019-01-12T20:11:09.474Z,7.59
2019-01-12T20:17:06.606Z,7.63
2019-01-12T20:19:35.746Z,7.65
2019-01-12T20:22:04.810Z,7.69
2019-01-12T20:24:33.920Z,7.72
2019-01-12T20:27:03.054Z,7.71
2019-01-12T20:29:32.305Z,7.82
2019-01-12T20:32:14.483Z,7.74
2019-01-12T20:34:57.290Z,7.70
2019-01-12T20:38:06.573Z,7.76
2019-01-12T20:41:09.168Z,7.75
2019-01-12T20:44:10.911Z,7.78
2019-01-12T20:47:12.295Z,7.69
2019-01-12T20:50:34.509Z,7.71
2019-01-12T20:53:53.995Z,7.64
2019-01-12T20:57:19.553Z,7.64
2019-01-12T21:00:01.293Z,7.63
2019-01-12T21:03:20.402Z,7.63
2019-01-12T21:06:13.022Z,7.61
2019-01-12T21:09:28.273Z,7.56
2019-01-12T21:12:24.414Z,7.62
2019-01-12T21:15:04.870Z,7.58
2019-01-12T21:17:34.022Z,7.56
2019-01-12T21:20:03.135Z,7.60
2019-01-12T21:22:33.199Z,7.68
2019-01-12T21:25:03.357Z,7.64
2019-01-12T21:27:33.717Z,7.72
2019-01-12T21:30:08.595Z,7.72
2019-01-12T21:32:38.673Z,7.73
2019-01-12T21:35:10.258Z,7.73
2019-01-12T21:37:40.847Z,7.78
2019-01-12T21:40:11.184Z,7.78
2019-01-12T21:42:41.236Z,7.76
2019-01-12T21:45:12.569Z,7.68
2019-01-12T21:47:43.074Z,7.62
2019-01-12T21:50:17.077Z,7.72
2019-01-12T21:52:46.229Z,7.74
2019-01-12T21:55:15.338Z,7.78
2019-01-12T21:57:45.182Z,7.78
2019-01-12T22:00:16.029Z,7.70
2019-01-12T22:02:47.954Z,7.59
2019-01-12T22:05:20.135Z,7.65
2019-01-12T22:07:52.046Z,7.72
2019-01-12T22:10:21.153Z,7.63
2019-01-12T22:12:50.277Z,7.61
2019-01-12T22:15:19.457Z,7.67
2019-01-12T22:17:51.563Z,7.76
2019-01-12T22:20:20.720Z,7.65
2019-01-12T22:22:50.789Z,7.71
2019-01-12T22:25:21.097Z,7.74
2019-01-12T22:27:50.346Z,7.80
2019-01-12T22:30:19.503Z,7.86
2019-01-12T22:32:49.925Z,7.85
2019-01-12T22:35:19.992Z,7.79
2019-01-12T22:37:49.062Z,7.83
2019-01-12T22:40:19.391Z,7.87
2019-01-12T22:42:52.383Z,7.87
2019-01-12T22:45:21.475Z,7.92
2019-01-12T22:47:50.825Z,7.96
2019-01-12T22:50:20.010Z,7.89
2019-01-12T22:52:51.846Z,7.93
2019-01-12T22:55:21.008Z,7.88
2019-01-12T22:57:51.174Z,7.94
2019-01-12T23:00:45.257Z,7.92
2019-01-12T23:03:15.424Z,8.02
2019-01-12T23:05:44.714Z,7.96
2019-01-12T23:08:13.812Z,7.93
2019-01-12T23:10:42.959Z,7.85
2019-01-12T23:13:12.312Z,7.89
2019-01-12T23:15:41.366Z,7.94
2019-01-12T23:18:10.479Z,7.96
2019-01-12T23:20:39.556Z,7.85
2019-01-12T23:23:08.670Z,7.92
2019-01-12T23:25:37.899Z,7.99
2019-01-12T23:28:07.202Z,7.95
2019-01-12T23:30:36.427Z,8.01
2019-01-12T23:33:05.568Z,8.02
2019-01-12T23:35:34.688Z,7.99
2019-01-12T23:38:03.797Z,8.10
2019-01-12T23:40:32.994Z,8.06
2019-01-12T23:43:02.178Z,8.06
2019-01-12T23:45:31.377Z,8.15
2019-01-12T23:48:00.501Z,8.15
2019-01-12T23:50:29.613Z,8.01
2019-01-12T23:52:58.726Z,8.14
2019-01-12T23:55:27.843Z,7.99
2019-01-12T23:57:56.965Z,8.08
